createdAt,value
2019-03-09T00:03:56.788Z,2.53
2019-03-09T00:10:02.715Z,2.37
2019-03-09T00:16:08.464Z,2.30
2019-03-09T00:22:14.394Z,2.07
2019-03-09T00:28:25.606Z,2.40
2019-03-09T00:34:31.382Z,2.40
2019-03-09T00:40:37.288Z,2.73
2019-03-09T00:46:43.047Z,2.20
2019-03-09T00:52:48.850Z,2.30
2019-03-09T00:58:54.639Z,2.13
2019-03-09T01:05:00.506Z,1.90
2019-03-09T01:11:06.272Z,2.20
2019-03-09T01:17:12.306Z,2.27
2019-03-09T01:23:18.814Z,2.40
2019-03-09T01:29:24.846Z,2.50
2019-03-09T01:35:30.961Z,2.67
2019-03-09T01:41:36.819Z,2.47
2019-03-09T01:47:42.775Z,2.23
2019-03-09T01:53:48.577Z,2.80
2019-03-09T01:59:54.654Z,2.77
2019-03-09T02:06:00.403Z,2.80
2019-03-09T02:12:06.452Z,2.90
2019-03-09T02:18:12.652Z,3.50
2019-03-09T02:24:18.639Z,3.60
2019-03-09T02:30:24.592Z,3.80
2019-03-09T02:36:30.819Z,3.30
2019-03-09T02:42:37.152Z,3.43
2019-03-09T02:48:43.103Z,3.80
2019-03-09T02:54:49.694Z,3.70
2019-03-09T03:01:17.624Z,4.03
2019-03-09T03:07:48.896Z,4.00
2019-03-09T03:13:54.754Z,3.80
2019-03-09T03:20:00.657Z,3.70
2019-03-09T03:26:06.748Z,3.30
2019-03-09T03:32:12.663Z,3.40
2019-03-09T03:38:18.424Z,3.40
2019-03-09T03:44:24.650Z,3.00
2019-03-09T03:50:30.601Z,3.17
2019-03-09T03:56:36.476Z,3.00
2019-03-09T04:02:42.291Z,3.00
2019-03-09T04:08:48.569Z,3.03
2019-03-09T04:14:54.606Z,2.73
2019-03-09T04:21:02.030Z,3.10
2019-03-09T04:27:07.992Z,3.50
2019-03-09T04:33:14.438Z,4.80
2019-03-09T04:39:20.791Z,5.13
2019-03-09T04:45:27.104Z,7.57
2019-03-09T04:51:33.486Z,8.17
2019-03-09T04:57:39.781Z,6.17
2019-03-09T05:03:46.062Z,5.40
2019-03-09T05:10:29.192Z,5.97
2019-03-09T05:16:35.001Z,6.20
2019-03-09T05:22:40.835Z,7.60
2019-03-09T05:28:47.214Z,7.13
2019-03-09T05:34:53.113Z,7.53
2019-03-09T05:40:58.863Z,8.67
2019-03-09T05:47:04.800Z,8.27
2019-03-09T05:53:17.555Z,9.17
2019-03-09T05:59:23.362Z,10.53
2019-03-09T06:05:45.154Z,11.30
2019-03-09T06:11:51.034Z,11.30
2019-03-09T06:17:56.859Z,10.50
2019-03-09T06:24:02.609Z,10.90
2019-03-09T06:30:08.737Z,10.67
2019-03-09T06:37:12.403Z,10.73
2019-03-09T06:43:18.301Z,10.37
2019-03-09T06:49:25.195Z,12.00
2019-03-09T06:55:31.218Z,11.17
2019-03-09T07:01:37.424Z,11.53
2019-03-09T07:07:43.751Z,10.63
2019-03-09T07:13:53.191Z,11.67
2019-03-09T07:19:57.703Z,11.47
2019-03-09T07:26:03.662Z,10.67
2019-03-09T07:32:09.565Z,10.37
2019-03-09T07:44:32.542Z,10.07
2019-03-09T07:50:38.759Z,10.20
2019-03-09T07:56:44.554Z,10.43
2019-03-09T08:02:50.448Z,9.43
2019-03-09T08:08:56.186Z,7.60
2019-03-09T08:15:03.242Z,8.20
2019-03-09T08:21:09.101Z,8.33
2019-03-09T08:27:15.344Z,7.97
2019-03-09T08:33:21.255Z,7.23
2019-03-09T08:39:27.355Z,6.30
2019-03-09T08:45:33.357Z,6.40
2019-03-09T08:51:39.366Z,6.13
2019-03-09T08:57:46.178Z,6.13
2019-03-09T09:03:52.710Z,5.40
2019-03-09T09:09:58.611Z,4.80
2019-03-09T09:16:04.383Z,4.90
2019-03-09T09:22:10.671Z,4.57
2019-03-09T09:28:16.642Z,4.50
2019-03-09T09:34:23.173Z,4.20
2019-03-09T09:40:29.242Z,3.73
2019-03-09T09:46:35.656Z,3.77
2019-03-09T09:52:41.837Z,3.60
2019-03-09T09:58:47.569Z,3.67
2019-03-09T10:04:53.487Z,3.63
2019-03-09T10:10:59.814Z,3.73
2019-03-09T10:17:05.639Z,3.73
2019-03-09T10:23:11.418Z,5.27
2019-03-09T10:29:17.226Z,3.70
2019-03-09T10:35:24.007Z,3.37
2019-03-09T10:41:30.241Z,3.43
2019-03-09T10:47:36.421Z,3.40
2019-03-09T10:53:42.545Z,3.10
2019-03-09T10:59:48.666Z,2.97
2019-03-09T11:05:54.935Z,2.70
2019-03-09T11:12:01.471Z,3.20
2019-03-09T11:18:07.868Z,3.13
2019-03-09T11:24:14.045Z,2.67
2019-03-09T11:30:23.229Z,3.20
2019-03-09T11:36:29.153Z,3.00
2019-03-09T11:42:35.025Z,3.03
2019-03-09T11:48:43.063Z,2.83
2019-03-09T11:54:49.003Z,2.97
2019-03-09T12:00:55.089Z,2.93
2019-03-09T12:07:02.125Z,2.80
2019-03-09T12:13:08.196Z,3.10
2019-03-09T12:19:13.994Z,2.70
2019-03-09T12:25:20.229Z,2.30
2019-03-09T12:31:26.558Z,2.60
2019-03-09T12:37:32.304Z,2.13
2019-03-09T12:43:38.413Z,2.07
2019-03-09T12:49:44.454Z,2.33
2019-03-09T12:55:50.533Z,2.80
2019-03-09T13:01:56.267Z,3.27
2019-03-09T13:08:02.323Z,3.67
2019-03-09T13:14:08.342Z,3.47
2019-03-09T13:20:14.215Z,4.07
2019-03-09T13:26:20.104Z,4.70
2019-03-09T13:32:25.912Z,4.73
2019-03-09T13:38:31.660Z,5.03
2019-03-09T13:44:37.425Z,5.10
2019-03-09T13:50:43.275Z,5.17
2019-03-09T13:56:49.093Z,4.23
2019-03-09T14:02:55.021Z,4.57
2019-03-09T14:09:01.126Z,4.37
2019-03-09T14:15:08.033Z,5.80
2019-03-09T14:21:14.263Z,5.40
2019-03-09T14:27:20.096Z,4.70
2019-03-09T14:33:25.877Z,6.00
2019-03-09T14:39:31.779Z,6.80
2019-03-09T14:45:37.541Z,7.10
2019-03-09T14:51:43.321Z,3.37
2019-03-09T14:57:49.297Z,5.73
2019-03-09T15:03:55.064Z,7.03
2019-03-09T15:10:00.982Z,6.83
2019-03-09T15:16:06.849Z,6.10
2019-03-09T15:22:12.822Z,5.63
2019-03-09T15:28:18.604Z,7.00
2019-03-09T15:34:24.384Z,6.07
2019-03-09T15:40:30.151Z,6.50
2019-03-09T15:46:35.916Z,6.67
2019-03-09T15:52:41.769Z,3.13
2019-03-09T15:58:47.551Z,2.43
2019-03-09T16:04:53.365Z,2.20
2019-03-09T16:10:59.288Z,3.00
2019-03-09T16:17:08.481Z,3.27
2019-03-09T16:23:14.306Z,1.40
2019-03-09T16:29:20.091Z,1.10
2019-03-09T16:35:26.418Z,1.60
2019-03-09T16:41:33.206Z,2.67
2019-03-09T16:47:39.026Z,2.10
2019-03-09T16:53:44.832Z,1.83
2019-03-09T16:59:51.007Z,1.70
2019-03-09T17:05:57.122Z,2.30
2019-03-09T17:12:02.957Z,1.97
2019-03-09T17:18:08.738Z,3.10
2019-03-09T17:24:14.550Z,2.77
2019-03-09T17:30:20.351Z,2.27
2019-03-09T17:36:26.106Z,2.53
2019-03-09T17:42:31.936Z,2.83
2019-03-09T17:48:37.724Z,4.00
2019-03-09T17:54:43.916Z,3.83
2019-03-09T18:00:49.745Z,3.57
2019-03-09T18:06:55.523Z,3.27
2019-03-09T18:13:01.380Z,3.90
2019-03-09T18:19:07.175Z,3.30
2019-03-09T18:25:12.932Z,3.10
2019-03-09T18:31:18.696Z,3.73
2019-03-09T18:37:24.488Z,2.87
2019-03-09T18:43:30.288Z,3.00
2019-03-09T18:49:36.305Z,2.93
2019-03-09T18:55:42.375Z,4.07
2019-03-09T19:01:48.160Z,3.97
2019-03-09T19:07:53.956Z,4.00
2019-03-09T19:13:59.774Z,3.57
2019-03-09T19:20:06.286Z,3.43
2019-03-09T19:26:12.062Z,4.30
2019-03-09T19:32:17.954Z,6.53
2019-03-09T19:38:23.785Z,3.63
2019-03-09T19:44:29.610Z,3.77
2019-03-09T19:50:36.040Z,3.37
2019-03-09T19:56:41.967Z,3.37
2019-03-09T20:02:47.817Z,2.87
2019-03-09T20:08:53.601Z,3.47
2019-03-09T20:14:59.393Z,3.00
2019-03-09T20:21:05.350Z,3.80
2019-03-09T20:27:11.230Z,3.13
2019-03-09T20:33:17.125Z,3.40
2019-03-09T20:39:23.026Z,4.53
2019-03-09T20:45:28.943Z,5.47
2019-03-09T20:51:37.363Z,4.77
2019-03-09T20:57:43.271Z,4.63
2019-03-09T21:03:49.209Z,4.00
2019-03-09T21:09:55.172Z,3.43
2019-03-09T21:16:01.256Z,3.10
2019-03-09T21:22:07.166Z,2.97
2019-03-09T21:28:13.006Z,3.00
2019-03-09T21:34:19.081Z,3.40
2019-03-09T21:40:25.076Z,3.47
2019-03-09T21:46:30.858Z,3.73
2019-03-09T21:52:36.671Z,3.13
2019-03-09T21:58:42.496Z,3.57
2019-03-09T22:04:48.272Z,4.77
2019-03-09T22:10:54.094Z,4.80
2019-03-09T22:16:59.915Z,4.70
2019-03-09T22:23:05.686Z,4.50
2019-03-09T22:29:11.557Z,4.40
2019-03-09T22:35:17.894Z,4.10
2019-03-09T22:41:23.673Z,4.30
2019-03-09T22:47:29.413Z,4.37
2019-03-09T22:53:35.215Z,5.60
2019-03-09T22:59:41.004Z,6.23
2019-03-09T23:05:46.792Z,5.40
2019-03-09T23:11:52.835Z,4.93
2019-03-09T23:17:58.959Z,5.80
2019-03-09T23:24:04.838Z,5.30
2019-03-09T23:30:16.136Z,5.53
2019-03-09T23:36:22.188Z,4.67
2019-03-09T23:42:28.110Z,4.20
2019-03-09T23:48:34.552Z,5.00
2019-03-09T23:54:40.809Z,5.60
